sensor_id;sensor_type;location;lat;lon;timestamp;P1;durP1;ratioP1;P2;durP2;ratioP2
63114;SDS011;49208;50.874;6.466;2022-11-04T06:02:33;4.82;;;1.92;;
63114;SDS011;49208;50.874;6.466;2022-11-04T06:04:59;4.30;;;1.95;;
63114;SDS011;49208;50.874;6.466;2022-11-04T06:07:24;5.40;;;1.40;;
63114;SDS011;49208;50.874;6.466;2022-11-04T06:09:49;5.78;;;2.60;;
63114;SDS011;49208;50.874;6.466;2022-11-04T06:12:15;2.70;;;1.70;;
63114;SDS011;49208;50.874;6.466;2022-11-04T06:14:41;4.70;;;1.88;;
63114;SDS011;49208;50.874;6.466;2022-11-04T06:17:08;4.72;;;2.05;;
63114;SDS011;49208;50.874;6.466;2022-11-04T06:19:38;3.92;;;1.88;;
63114;SDS011;49208;50.874;6.466;2022-11-04T06:22:04;4.80;;;2.00;;
63114;SDS011;49208;50.874;6.466;2022-11-04T06:24:29;7.18;;;2.00;;
63114;SDS011;49208;50.874;6.466;2022-11-04T06:26:54;4.88;;;1.88;;
63114;SDS011;49208;50.874;6.466;2022-11-04T06:29:20;6.35;;;1.90;;
63114;SDS011;49208;50.874;6.466;2022-11-04T06:31:45;5.20;;;2.08;;
63114;SDS011;49208;50.874;6.466;2022-11-04T06:34:10;5.95;;;1.70;;
63114;SDS011;49208;50.874;6.466;2022-11-04T06:36:36;5.30;;;1.65;;
63114;SDS011;49208;50.874;6.466;2022-11-04T06:39:02;3.60;;;1.38;;
63114;SDS011;49208;50.874;6.466;2022-11-04T06:41:28;6.80;;;2.27;;
63114;SDS011;49208;50.874;6.466;2022-11-04T06:43:53;4.85;;;2.10;;
63114;SDS011;49208;50.874;6.466;2022-11-04T06:46:35;6.10;;;2.33;;
63114;SDS011;49208;50.874;6.466;2022-11-04T06:49:03;8.82;;;2.53;;
63114;SDS011;49208;50.874;6.466;2022-11-04T06:51:30;3.83;;;1.63;;
63114;SDS011;49208;50.874;6.466;2022-11-04T06:53:57;4.07;;;1.73;;
63114;SDS011;49208;50.874;6.466;2022-11-04T06:56:22;5.10;;;1.58;;
63114;SDS011;49208;50.874;6.466;2022-11-04T06:58:48;4.72;;;2.13;;
63114;SDS011;49208;50.874;6.466;2022-11-04T07:01:15;3.43;;;1.67;;
63114;SDS011;49208;50.874;6.466;2022-11-04T07:03:41;4.72;;;1.77;;
63114;SDS011;49208;50.874;6.466;2022-11-04T07:06:08;5.95;;;1.58;;
63114;SDS011;49208;50.874;6.466;2022-11-04T07:08:34;4.15;;;1.65;;
63114;SDS011;49208;50.874;6.466;2022-11-04T07:11:00;4.78;;;2.20;;
63114;SDS011;49208;50.874;6.466;2022-11-04T07:13:26;8.75;;;2.17;;
63114;SDS011;49208;50.874;6.466;2022-11-04T07:15:52;4.47;;;1.90;;
63114;SDS011;49208;50.874;6.466;2022-11-04T07:18:17;7.70;;;3.70;;
63114;SDS011;49208;50.874;6.466;2022-11-04T07:20:42;6.15;;;2.50;;
63114;SDS011;49208;50.874;6.466;2022-11-04T07:23:08;4.57;;;2.70;;
63114;SDS011;49208;50.874;6.466;2022-11-04T07:25:33;6.13;;;3.20;;
63114;SDS011;49208;50.874;6.466;2022-11-04T07:27:58;9.38;;;3.45;;
63114;SDS011;49208;50.874;6.466;2022-11-04T07:30:25;7.88;;;3.28;;
63114;SDS011;49208;50.874;6.466;2022-11-04T07:32:50;8.85;;;3.50;;
63114;SDS011;49208;50.874;6.466;2022-11-04T07:35:16;5.30;;;2.50;;
63114;SDS011;49208;50.874;6.466;2022-11-04T07:37:42;4.40;;;2.30;;
63114;SDS011;49208;50.874;6.466;2022-11-04T07:40:07;7.65;;;2.25;;
63114;SDS011;49208;50.874;6.466;2022-11-04T07:42:34;9.93;;;3.97;;
63114;SDS011;49208;50.874;6.466;2022-11-04T07:44:59;11.70;;;2.95;;
63114;SDS011;49208;50.874;6.466;2022-11-04T07:47:27;10.98;;;2.47;;
63114;SDS011;49208;50.874;6.466;2022-11-04T07:49:54;7.30;;;2.05;;
63114;SDS011;49208;50.874;6.466;2022-11-04T07:52:19;9.88;;;2.45;;
63114;SDS011;49208;50.874;6.466;2022-11-04T07:54:45;12.32;;;2.50;;
63114;SDS011;49208;50.874;6.466;2022-11-04T07:57:10;7.82;;;2.22;;
63114;SDS011;49208;50.874;6.466;2022-11-04T07:59:36;5.68;;;2.10;;
63114;SDS011;49208;50.874;6.466;2022-11-04T08:02:01;5.85;;;1.75;;
63114;SDS011;49208;50.874;6.466;2022-11-04T08:04:26;6.90;;;1.75;;
63114;SDS011;49208;50.874;6.466;2022-11-04T08:06:52;6.00;;;1.88;;
63114;SDS011;49208;50.874;6.466;2022-11-04T08:09:17;5.50;;;1.73;;
63114;SDS011;49208;50.874;6.466;2022-11-04T08:11:43;4.07;;;1.70;;
63114;SDS011;49208;50.874;6.466;2022-11-04T08:14:08;4.70;;;1.80;;
63114;SDS011;49208;50.874;6.466;2022-11-04T08:16:34;8.70;;;1.80;;
63114;SDS011;49208;50.874;6.466;2022-11-04T08:18:59;10.23;;;1.95;;
63114;SDS011;49208;50.874;6.466;2022-11-04T08:21:26;5.70;;;2.10;;
63114;SDS011;49208;50.874;6.466;2022-11-04T08:23:53;7.07;;;2.40;;
63114;SDS011;49208;50.874;6.466;2022-11-04T08:26:19;6.85;;;2.42;;
63114;SDS011;49208;50.874;6.466;2022-11-04T08:28:47;7.22;;;2.22;;
63114;SDS011;49208;50.874;6.466;2022-11-04T08:31:18;3.72;;;2.03;;
63114;SDS011;49208;50.874;6.466;2022-11-04T08:33:51;3.88;;;2.28;;
63114;SDS011;49208;50.874;6.466;2022-11-04T08:36:19;7.23;;;1.97;;
63114;SDS011;49208;50.874;6.466;2022-11-04T08:38:46;5.50;;;2.88;;
63114;SDS011;49208;50.874;6.466;2022-11-04T08:41:13;4.90;;;2.30;;
63114;SDS011;49208;50.874;6.466;2022-11-04T08:43:39;5.10;;;2.10;;
63114;SDS011;49208;50.874;6.466;2022-11-04T08:46:06;5.05;;;2.30;;
63114;SDS011;49208;50.874;6.466;2022-11-04T08:48:34;5.70;;;2.35;;
63114;SDS011;49208;50.874;6.466;2022-11-04T08:51:01;7.03;;;2.53;;
63114;SDS011;49208;50.874;6.466;2022-11-04T08:53:28;8.05;;;2.58;;
63114;SDS011;49208;50.874;6.466;2022-11-04T08:55:54;6.75;;;2.40;;
63114;SDS011;49208;50.874;6.466;2022-11-04T08:58:20;7.43;;;2.47;;
63114;SDS011;49208;50.874;6.466;2022-11-04T09:00:47;5.15;;;2.22;;
63114;SDS011;49208;50.874;6.466;2022-11-04T09:03:12;5.38;;;2.53;;
63114;SDS011;49208;50.874;6.466;2022-11-04T09:05:38;6.43;;;2.58;;
63114;SDS011;49208;50.874;6.466;2022-11-04T09:08:09;6.07;;;2.20;;
63114;SDS011;49208;50.874;6.466;2022-11-04T09:10:42;5.57;;;2.53;;
63114;SDS011;49208;50.874;6.466;2022-11-04T09:13:09;5.22;;;2.50;;
63114;SDS011;49208;50.874;6.466;2022-11-04T09:15:36;7.80;;;2.20;;
63114;SDS011;49208;50.874;6.466;2022-11-04T09:18:02;8.25;;;1.92;;
63114;SDS011;49208;50.874;6.466;2022-11-04T09:20:27;7.72;;;3.10;;
63114;SDS011;49208;50.874;6.466;2022-11-04T09:22:54;5.43;;;2.20;;
63114;SDS011;49208;50.874;6.466;2022-11-04T09:25:20;6.80;;;1.90;;
63114;SDS011;49208;50.874;6.466;2022-11-04T09:27:45;5.43;;;1.88;;
63114;SDS011;49208;50.874;6.466;2022-11-04T09:30:10;4.90;;;2.45;;
63114;SDS011;49208;50.874;6.466;2022-11-04T09:32:36;10.07;;;3.03;;
63114;SDS011;49208;50.874;6.466;2022-11-04T09:35:02;6.63;;;2.08;;
63114;SDS011;49208;50.874;6.466;2022-11-04T09:37:27;6.15;;;2.42;;
63114;SDS011;49208;50.874;6.466;2022-11-04T09:39:53;5.93;;;2.35;;
63114;SDS011;49208;50.874;6.466;2022-11-04T09:42:31;7.75;;;1.80;;
63114;SDS011;49208;50.874;6.466;2022-11-04T09:45:21;5.75;;;2.42;;
63114;SDS011;49208;50.874;6.466;2022-11-04T09:47:51;6.47;;;2.28;;
63114;SDS011;49208;50.874;6.466;2022-11-04T09:50:23;6.13;;;2.20;;
63114;SDS011;49208;50.874;6.466;2022-11-04T09:52:55;6.78;;;2.00;;
63114;SDS011;49208;50.874;6.466;2022-11-04T09:55:40;9.85;;;2.13;;
63114;SDS011;49208;50.874;6.466;2022-11-04T09:58:13;5.78;;;1.90;;
63114;SDS011;49208;50.874;6.466;2022-11-04T10:00:39;4.05;;;1.92;;
63114;SDS011;49208;50.874;6.466;2022-11-04T10:22:58;4.30;;;1.70;;
63114;SDS011;49208;50.874;6.466;2022-11-04T10:25:37;5.38;;;1.45;;
63114;SDS011;49208;50.874;6.466;2022-11-04T10:28:09;4.20;;;1.48;;
63114;SDS011;49208;50.874;6.466;2022-11-04T10:30:41;3.72;;;1.48;;
63114;SDS011;49208;50.874;6.466;2022-11-04T10:35:35;6.30;;;1.70;;
63114;SDS011;49208;50.874;6.466;2022-11-04T10:38:12;3.50;;;1.67;;
63114;SDS011;49208;50.874;6.466;2022-11-04T10:40:39;3.42;;;1.40;;
63114;SDS011;49208;50.874;6.466;2022-11-04T10:43:08;4.05;;;1.50;;
63114;SDS011;49208;50.874;6.466;2022-11-04T10:45:42;6.32;;;1.90;;
63114;SDS011;49208;50.874;6.466;2022-11-04T10:48:28;4.65;;;1.85;;
63114;SDS011;49208;50.874;6.466;2022-11-04T10:51:01;3.88;;;1.85;;
63114;SDS011;49208;50.874;6.466;2022-11-04T10:53:27;11.73;;;1.85;;
63114;SDS011;49208;50.874;6.466;2022-11-04T10:56:00;7.65;;;1.98;;
63114;SDS011;49208;50.874;6.466;2022-11-04T10:58:33;5.07;;;1.60;;
63114;SDS011;49208;50.874;6.466;2022-11-04T11:03:53;3.50;;;1.30;;
63114;SDS011;49208;50.874;6.466;2022-11-04T11:06:29;5.50;;;1.70;;
63114;SDS011;49208;50.874;6.466;2022-11-04T11:08:57;4.07;;;1.33;;
63114;SDS011;49208;50.874;6.466;2022-11-04T11:14:19;5.88;;;1.55;;
63114;SDS011;49208;50.874;6.466;2022-11-04T11:19:49;4.53;;;1.45;;
63114;SDS011;49208;50.874;6.466;2022-11-04T11:30:23;3.38;;;1.00;;
63114;SDS011;49208;50.874;6.466;2022-11-04T11:33:02;4.78;;;1.40;;
63114;SDS011;49208;50.874;6.466;2022-11-04T11:35:33;4.78;;;1.17;;
63114;SDS011;49208;50.874;6.466;2022-11-04T11:38:12;2.90;;;1.00;;
63114;SDS011;49208;50.874;6.466;2022-11-04T11:40:43;3.78;;;1.00;;
63114;SDS011;49208;50.874;6.466;2022-11-04T11:43:17;3.77;;;1.10;;
63114;SDS011;49208;50.874;6.466;2022-11-04T11:45:48;5.68;;;1.10;;
63114;SDS011;49208;50.874;6.466;2022-11-04T11:48:28;3.08;;;1.10;;
63114;SDS011;49208;50.874;6.466;2022-11-04T11:51:07;4.03;;;0.90;;
63114;SDS011;49208;50.874;6.466;2022-11-04T11:53:37;2.97;;;0.90;;
63114;SDS011;49208;50.874;6.466;2022-11-04T11:58:58;2.88;;;0.95;;
63114;SDS011;49208;50.874;6.466;2022-11-04T12:01:37;7.80;;;1.13;;
63114;SDS011;49208;50.874;6.466;2022-11-04T12:04:06;2.05;;;0.70;;
63114;SDS011;49208;50.874;6.466;2022-11-04T12:09:30;1.67;;;0.70;;
63114;SDS011;49208;50.874;6.466;2022-11-04T12:12:18;5.10;;;0.88;;
63114;SDS011;49208;50.874;6.466;2022-11-04T12:25:42;3.67;;;1.15;;
63114;SDS011;49208;50.874;6.466;2022-11-04T12:33:39;6.85;;;1.35;;
63114;SDS011;49208;50.874;6.466;2022-11-04T12:36:41;3.72;;;1.10;;
63114;SDS011;49208;50.874;6.466;2022-11-04T12:42:33;4.95;;;1.25;;
63114;SDS011;49208;50.874;6.466;2022-11-04T12:47:53;3.47;;;1.35;;
63114;SDS011;49208;50.874;6.466;2022-11-04T12:53:39;4.43;;;1.27;;
63114;SDS011;49208;50.874;6.466;2022-11-04T12:56:13;3.63;;;1.23;;
63114;SDS011;49208;50.874;6.466;2022-11-04T13:01:36;3.22;;;1.48;;
63114;SDS011;49208;50.874;6.466;2022-11-04T13:04:15;3.78;;;1.67;;
63114;SDS011;49208;50.874;6.466;2022-11-04T13:06:46;9.05;;;2.63;;
63114;SDS011;49208;50.874;6.466;2022-11-04T13:09:19;3.97;;;1.80;;
63114;SDS011;49208;50.874;6.466;2022-11-04T13:12:02;5.00;;;2.20;;
63114;SDS011;49208;50.874;6.466;2022-11-04T13:17:30;5.13;;;2.17;;
63114;SDS011;49208;50.874;6.466;2022-11-04T13:22:40;7.82;;;3.00;;
63114;SDS011;49208;50.874;6.466;2022-11-04T13:25:13;5.63;;;2.92;;
63114;SDS011;49208;50.874;6.466;2022-11-04T13:27:44;4.45;;;2.22;;
63114;SDS011;49208;50.874;6.466;2022-11-04T13:43:54;7.68;;;2.45;;
63114;SDS011;49208;50.874;6.466;2022-11-04T13:46:29;5.82;;;2.05;;
63114;SDS011;49208;50.874;6.466;2022-11-04T13:48:58;6.20;;;2.78;;
63114;SDS011;49208;50.874;6.466;2022-11-04T13:51:32;7.60;;;2.88;;
63114;SDS011;49208;50.874;6.466;2022-11-04T13:54:04;6.22;;;2.65;;
63114;SDS011;49208;50.874;6.466;2022-11-04T13:59:28;4.97;;;1.90;;
63114;SDS011;49208;50.874;6.466;2022-11-04T14:04:35;6.65;;;1.50;;
63114;SDS011;49208;50.874;6.466;2022-11-04T14:07:02;5.03;;;1.67;;
63114;SDS011;49208;50.874;6.466;2022-11-04T14:14:42;6.20;;;2.60;;
63114;SDS011;49208;50.874;6.466;2022-11-04T14:19:57;4.97;;;2.00;;
63114;SDS011;49208;50.874;6.466;2022-11-04T14:22:51;6.22;;;2.15;;
63114;SDS011;49208;50.874;6.466;2022-11-04T14:27:44;4.95;;;2.15;;
63114;SDS011;49208;50.874;6.466;2022-11-04T14:30:34;6.82;;;2.85;;
63114;SDS011;49208;50.874;6.466;2022-11-04T14:33:21;5.00;;;2.58;;
63114;SDS011;49208;50.874;6.466;2022-11-04T14:35:55;7.80;;;2.55;;
63114;SDS011;49208;50.874;6.466;2022-11-04T14:38:37;5.05;;;2.65;;
63114;SDS011;49208;50.874;6.466;2022-11-04T14:43:53;4.38;;;2.03;;
63114;SDS011;49208;50.874;6.466;2022-11-04T14:46:20;6.35;;;1.95;;
63114;SDS011;49208;50.874;6.466;2022-11-04T14:48:50;6.32;;;1.98;;
63114;SDS011;49208;50.874;6.466;2022-11-04T14:51:19;4.90;;;1.70;;
63114;SDS011;49208;50.874;6.466;2022-11-04T14:53:47;4.75;;;1.70;;
63114;SDS011;49208;50.874;6.466;2022-11-04T14:56:15;6.00;;;1.85;;
63114;SDS011;49208;50.874;6.466;2022-11-04T14:58:54;7.65;;;1.80;;
63114;SDS011;49208;50.874;6.466;2022-11-04T15:01:20;6.32;;;2.28;;
63114;SDS011;49208;50.874;6.466;2022-11-04T15:03:47;11.47;;;3.47;;
63114;SDS011;49208;50.874;6.466;2022-11-04T15:06:12;8.73;;;2.90;;
63114;SDS011;49208;50.874;6.466;2022-11-04T15:08:48;8.50;;;2.80;;
63114;SDS011;49208;50.874;6.466;2022-11-04T15:14:03;7.75;;;4.72;;
63114;SDS011;49208;50.874;6.466;2022-11-04T15:16:55;9.70;;;5.20;;
63114;SDS011;49208;50.874;6.466;2022-11-04T15:19:26;8.23;;;5.35;;
63114;SDS011;49208;50.874;6.466;2022-11-04T15:21:54;8.68;;;5.80;;
63114;SDS011;49208;50.874;6.466;2022-11-04T15:26:48;9.77;;;4.03;;
63114;SDS011;49208;50.874;6.466;2022-11-04T15:29:23;12.38;;;5.97;;
63114;SDS011;49208;50.874;6.466;2022-11-04T15:31:53;8.07;;;4.38;;
63114;SDS011;49208;50.874;6.466;2022-11-04T15:34:22;8.80;;;4.63;;
63114;SDS011;49208;50.874;6.466;2022-11-04T15:36:49;8.25;;;4.53;;
63114;SDS011;49208;50.874;6.466;2022-11-04T15:42:07;10.38;;;5.00;;
63114;SDS011;49208;50.874;6.466;2022-11-04T15:44:57;7.90;;;4.65;;
63114;SDS011;49208;50.874;6.466;2022-11-04T15:47:24;8.55;;;5.05;;
63114;SDS011;49208;50.874;6.466;2022-11-04T15:49:52;8.55;;;3.70;;
63114;SDS011;49208;50.874;6.466;2022-11-04T15:52:27;9.55;;;4.03;;
63114;SDS011;49208;50.874;6.466;2022-11-04T15:54:54;9.65;;;3.30;;
63114;SDS011;49208;50.874;6.466;2022-11-04T15:57:26;7.60;;;3.85;;
63114;SDS011;49208;50.874;6.466;2022-11-04T16:02:32;8.88;;;4.38;;
63114;SDS011;49208;50.874;6.466;2022-11-04T16:12:57;8.63;;;4.38;;
63114;SDS011;49208;50.874;6.466;2022-11-04T16:15:48;10.45;;;5.00;;
63114;SDS011;49208;50.874;6.466;2022-11-04T16:20:50;7.85;;;5.03;;
63114;SDS011;49208;50.874;6.466;2022-11-04T16:23:18;7.75;;;4.13;;
63114;SDS011;49208;50.874;6.466;2022-11-04T16:26:06;10.15;;;5.47;;
63114;SDS011;49208;50.874;6.466;2022-11-04T16:28:34;10.80;;;6.20;;
63114;SDS011;49208;50.874;6.466;2022-11-04T16:31:02;10.48;;;5.72;;
63114;SDS011;49208;50.874;6.466;2022-11-04T16:33:30;10.05;;;5.72;;
63114;SDS011;49208;50.874;6.466;2022-11-04T16:35:55;10.48;;;6.22;;
63114;SDS011;49208;50.874;6.466;2022-11-04T16:38:21;15.30;;;7.53;;
63114;SDS011;49208;50.874;6.466;2022-11-04T16:40:47;15.60;;;7.63;;
63114;SDS011;49208;50.874;6.466;2022-11-04T16:43:13;12.50;;;7.60;;
63114;SDS011;49208;50.874;6.466;2022-11-04T16:45:43;12.82;;;8.77;;
63114;SDS011;49208;50.874;6.466;2022-11-04T16:50:43;14.32;;;7.35;;
63114;SDS011;49208;50.874;6.466;2022-11-04T16:53:09;13.25;;;7.35;;
63114;SDS011;49208;50.874;6.466;2022-11-04T16:55:34;11.48;;;6.32;;
63114;SDS011;49208;50.874;6.466;2022-11-04T16:58:04;12.25;;;6.65;;
63114;SDS011;49208;50.874;6.466;2022-11-04T17:00:30;13.98;;;6.25;;
63114;SDS011;49208;50.874;6.466;2022-11-04T17:02:57;9.85;;;5.75;;
63114;SDS011;49208;50.874;6.466;2022-11-04T17:05:26;9.73;;;5.07;;
63114;SDS011;49208;50.874;6.466;2022-11-04T17:07:52;10.95;;;5.75;;
63114;SDS011;49208;50.874;6.466;2022-11-04T17:10:21;13.95;;;7.05;;
63114;SDS011;49208;50.874;6.466;2022-11-04T17:12:49;12.82;;;6.95;;
63114;SDS011;49208;50.874;6.466;2022-11-04T17:15:14;16.73;;;8.65;;
63114;SDS011;49208;50.874;6.466;2022-11-04T17:17:41;11.95;;;7.45;;
63114;SDS011;49208;50.874;6.466;2022-11-04T17:20:09;15.88;;;8.00;;
63114;SDS011;49208;50.874;6.466;2022-11-04T17:22:36;12.70;;;8.32;;
63114;SDS011;49208;50.874;6.466;2022-11-04T17:25:02;13.13;;;8.50;;
63114;SDS011;49208;50.874;6.466;2022-11-04T17:27:38;13.73;;;7.00;;
63114;SDS011;49208;50.874;6.466;2022-11-04T17:30:05;15.73;;;7.90;;
63114;SDS011;49208;50.874;6.466;2022-11-04T17:32:31;13.02;;;6.90;;
63114;SDS011;49208;50.874;6.466;2022-11-04T17:34:56;11.18;;;6.65;;
63114;SDS011;49208;50.874;6.466;2022-11-04T17:37:21;12.88;;;6.60;;
63114;SDS011;49208;50.874;6.466;2022-11-04T17:39:47;11.52;;;6.50;;
63114;SDS011;49208;50.874;6.466;2022-11-04T17:42:12;13.25;;;6.80;;
63114;SDS011;49208;50.874;6.466;2022-11-04T17:44:56;11.57;;;6.10;;
63114;SDS011;49208;50.874;6.466;2022-11-04T17:47:21;12.57;;;7.47;;
63114;SDS011;49208;50.874;6.466;2022-11-04T17:49:47;12.60;;;6.53;;
63114;SDS011;49208;50.874;6.466;2022-11-04T17:52:12;15.32;;;7.70;;
63114;SDS011;49208;50.874;6.466;2022-11-04T17:54:37;17.40;;;9.45;;
63114;SDS011;49208;50.874;6.466;2022-11-04T17:57:03;17.52;;;9.30;;
63114;SDS011;49208;50.874;6.466;2022-11-04T17:59:28;15.30;;;8.77;;
63114;SDS011;49208;50.874;6.466;2022-11-04T18:01:53;12.45;;;7.68;;
63114;SDS011;49208;50.874;6.466;2022-11-04T18:04:19;12.10;;;7.28;;
63114;SDS011;49208;50.874;6.466;2022-11-04T18:06:46;12.35;;;6.38;;
63114;SDS011;49208;50.874;6.466;2022-11-04T18:09:12;10.95;;;6.00;;
63114;SDS011;49208;50.874;6.466;2022-11-04T18:11:39;11.43;;;6.35;;
63114;SDS011;49208;50.874;6.466;2022-11-04T18:14:24;9.38;;;5.70;;
63114;SDS011;49208;50.874;6.466;2022-11-04T18:16:49;15.77;;;8.27;;
63114;SDS011;49208;50.874;6.466;2022-11-04T18:19:16;12.45;;;7.15;;
63114;SDS011;49208;50.874;6.466;2022-11-04T18:21:42;11.55;;;6.55;;
63114;SDS011;49208;50.874;6.466;2022-11-04T18:24:08;12.20;;;6.75;;
63114;SDS011;49208;50.874;6.466;2022-11-04T18:26:33;13.20;;;6.75;;
63114;SDS011;49208;50.874;6.466;2022-11-04T18:28:59;10.43;;;6.35;;
63114;SDS011;49208;50.874;6.466;2022-11-04T18:31:26;12.80;;;6.95;;
63114;SDS011;49208;50.874;6.466;2022-11-04T18:33:53;13.18;;;7.07;;
63114;SDS011;49208;50.874;6.466;2022-11-04T18:36:19;10.85;;;6.60;;
63114;SDS011;49208;50.874;6.466;2022-11-04T18:38:44;12.02;;;6.63;;
63114;SDS011;49208;50.874;6.466;2022-11-04T18:41:11;14.02;;;7.18;;
63114;SDS011;49208;50.874;6.466;2022-11-04T18:43:37;13.82;;;6.68;;
63114;SDS011;49208;50.874;6.466;2022-11-04T18:46:09;11.43;;;6.45;;
63114;SDS011;49208;50.874;6.466;2022-11-04T18:48:36;15.65;;;7.55;;
63114;SDS011;49208;50.874;6.466;2022-11-04T18:51:03;9.05;;;5.93;;
63114;SDS011;49208;50.874;6.466;2022-11-04T18:53:30;21.40;;;11.15;;
63114;SDS011;49208;50.874;6.466;2022-11-04T18:56:14;31.70;;;15.48;;
63114;SDS011;49208;50.874;6.466;2022-11-04T18:58:42;36.60;;;17.75;;
63114;SDS011;49208;50.874;6.466;2022-11-04T19:01:15;40.67;;;21.95;;
63114;SDS011;49208;50.874;6.466;2022-11-04T19:03:44;28.52;;;15.68;;
63114;SDS011;49208;50.874;6.466;2022-11-04T19:06:11;24.10;;;13.18;;
63114;SDS011;49208;50.874;6.466;2022-11-04T19:08:39;23.20;;;13.75;;
63114;SDS011;49208;50.874;6.466;2022-11-04T19:11:08;20.83;;;12.30;;
63114;SDS011;49208;50.874;6.466;2022-11-04T19:13:36;24.25;;;12.05;;
63114;SDS011;49208;50.874;6.466;2022-11-04T19:16:05;22.15;;;11.88;;
63114;SDS011;49208;50.874;6.466;2022-11-04T19:18:32;17.70;;;11.13;;
63114;SDS011;49208;50.874;6.466;2022-11-04T19:21:02;17.20;;;10.68;;
63114;SDS011;49208;50.874;6.466;2022-11-04T19:23:30;20.23;;;11.32;;
63114;SDS011;49208;50.874;6.466;2022-11-04T19:25:56;17.40;;;10.05;;
63114;SDS011;49208;50.874;6.466;2022-11-04T19:28:21;18.27;;;9.93;;
63114;SDS011;49208;50.874;6.466;2022-11-04T19:30:55;15.90;;;8.55;;
63114;SDS011;49208;50.874;6.466;2022-11-04T19:33:21;22.23;;;11.60;;
63114;SDS011;49208;50.874;6.466;2022-11-04T19:35:49;18.08;;;10.93;;
63114;SDS011;49208;50.874;6.466;2022-11-04T19:38:16;20.38;;;11.82;;
63114;SDS011;49208;50.874;6.466;2022-11-04T19:40:41;21.83;;;12.23;;
63114;SDS011;49208;50.874;6.466;2022-11-04T19:43:07;19.88;;;11.77;;
63114;SDS011;49208;50.874;6.466;2022-11-04T19:45:33;22.08;;;12.38;;
63114;SDS011;49208;50.874;6.466;2022-11-04T19:47:58;20.95;;;12.50;;
63114;SDS011;49208;50.874;6.466;2022-11-04T19:50:23;18.60;;;12.38;;
63114;SDS011;49208;50.874;6.466;2022-11-04T19:52:49;21.02;;;12.00;;
63114;SDS011;49208;50.874;6.466;2022-11-04T19:55:14;20.73;;;11.63;;
63114;SDS011;49208;50.874;6.466;2022-11-04T19:57:40;20.90;;;11.18;;
63114;SDS011;49208;50.874;6.466;2022-11-04T20:00:05;18.63;;;11.00;;
63114;SDS011;49208;50.874;6.466;2022-11-04T20:02:31;18.83;;;12.43;;
63114;SDS011;49208;50.874;6.466;2022-11-04T20:04:57;20.52;;;11.77;;
63114;SDS011;49208;50.874;6.466;2022-11-04T20:07:22;20.63;;;12.95;;
63114;SDS011;49208;50.874;6.466;2022-11-04T20:09:47;20.67;;;11.95;;
63114;SDS011;49208;50.874;6.466;2022-11-04T20:12:13;25.40;;;14.90;;
63114;SDS011;49208;50.874;6.466;2022-11-04T20:14:57;25.77;;;13.93;;
63114;SDS011;49208;50.874;6.466;2022-11-04T20:17:22;25.83;;;13.95;;
63114;SDS011;49208;50.874;6.466;2022-11-04T20:19:48;23.80;;;13.40;;
63114;SDS011;49208;50.874;6.466;2022-11-04T20:22:14;26.85;;;14.85;;
63114;SDS011;49208;50.874;6.466;2022-11-04T20:24:40;25.48;;;14.50;;
63114;SDS011;49208;50.874;6.466;2022-11-04T20:27:05;31.20;;;15.45;;
63114;SDS011;49208;50.874;6.466;2022-11-04T20:29:30;26.63;;;14.90;;
63114;SDS011;49208;50.874;6.466;2022-11-04T20:31:56;24.88;;;13.15;;
63114;SDS011;49208;50.874;6.466;2022-11-04T20:34:22;27.60;;;15.88;;
63114;SDS011;49208;50.874;6.466;2022-11-04T20:36:47;29.23;;;14.73;;
63114;SDS011;49208;50.874;6.466;2022-11-04T20:39:14;27.10;;;14.73;;
63114;SDS011;49208;50.874;6.466;2022-11-04T20:41:41;25.77;;;13.98;;
63114;SDS011;49208;50.874;6.466;2022-11-04T20:44:09;25.27;;;12.83;;
63114;SDS011;49208;50.874;6.466;2022-11-04T20:49:01;24.30;;;12.38;;
63114;SDS011;49208;50.874;6.466;2022-11-04T20:51:28;23.90;;;13.68;;
63114;SDS011;49208;50.874;6.466;2022-11-04T20:53:57;25.60;;;13.27;;
63114;SDS011;49208;50.874;6.466;2022-11-04T20:56:28;27.27;;;14.48;;
63114;SDS011;49208;50.874;6.466;2022-11-04T20:58:55;26.05;;;15.45;;
63114;SDS011;49208;50.874;6.466;2022-11-04T21:01:22;23.67;;;12.93;;
63114;SDS011;49208;50.874;6.466;2022-11-04T21:03:52;26.02;;;14.25;;
63114;SDS011;49208;50.874;6.466;2022-11-04T21:06:18;23.85;;;15.10;;
63114;SDS011;49208;50.874;6.466;2022-11-04T21:08:47;24.08;;;14.18;;
63114;SDS011;49208;50.874;6.466;2022-11-04T21:11:13;26.85;;;13.20;;
63114;SDS011;49208;50.874;6.466;2022-11-04T21:13:38;27.00;;;14.43;;
63114;SDS011;49208;50.874;6.466;2022-11-04T21:16:04;28.80;;;15.23;;
63114;SDS011;49208;50.874;6.466;2022-11-04T21:18:30;23.73;;;13.40;;
63114;SDS011;49208;50.874;6.466;2022-11-04T21:20:56;25.77;;;15.10;;
63114;SDS011;49208;50.874;6.466;2022-11-04T21:23:21;25.23;;;13.23;;
63114;SDS011;49208;50.874;6.466;2022-11-04T21:25:49;26.15;;;13.52;;
63114;SDS011;49208;50.874;6.466;2022-11-04T21:28:17;23.33;;;13.45;;
63114;SDS011;49208;50.874;6.466;2022-11-04T21:30:45;25.98;;;14.02;;
63114;SDS011;49208;50.874;6.466;2022-11-04T21:33:12;21.52;;;13.02;;
63114;SDS011;49208;50.874;6.466;2022-11-04T21:35:39;26.85;;;14.38;;
63114;SDS011;49208;50.874;6.466;2022-11-04T21:38:07;22.75;;;11.95;;
63114;SDS011;49208;50.874;6.466;2022-11-04T21:40:34;19.88;;;11.45;;
63114;SDS011;49208;50.874;6.466;2022-11-04T21:43:00;24.90;;;12.32;;
63114;SDS011;49208;50.874;6.466;2022-11-04T21:45:25;22.52;;;13.40;;
63114;SDS011;49208;50.874;6.466;2022-11-04T21:47:51;20.70;;;11.48;;
63114;SDS011;49208;50.874;6.466;2022-11-04T21:50:17;20.80;;;11.40;;
63114;SDS011;49208;50.874;6.466;2022-11-04T21:52:43;16.92;;;10.60;;
63114;SDS011;49208;50.874;6.466;2022-11-04T21:55:09;21.83;;;11.20;;
63114;SDS011;49208;50.874;6.466;2022-11-04T21:57:35;19.25;;;11.65;;
63114;SDS011;49208;50.874;6.466;2022-11-04T22:00:05;21.95;;;11.05;;
63114;SDS011;49208;50.874;6.466;2022-11-04T22:02:32;19.23;;;11.60;;
63114;SDS011;49208;50.874;6.466;2022-11-04T22:05:06;16.95;;;9.98;;
63114;SDS011;49208;50.874;6.466;2022-11-04T22:07:33;22.48;;;10.25;;
63114;SDS011;49208;50.874;6.466;2022-11-04T22:10:17;17.55;;;9.73;;
63114;SDS011;49208;50.874;6.466;2022-11-04T22:12:42;16.83;;;9.75;;
63114;SDS011;49208;50.874;6.466;2022-11-04T22:15:08;19.15;;;8.75;;
63114;SDS011;49208;50.874;6.466;2022-11-04T22:17:33;15.85;;;8.60;;
63114;SDS011;49208;50.874;6.466;2022-11-04T22:19:58;15.75;;;8.38;;
63114;SDS011;49208;50.874;6.466;2022-11-04T22:22:24;14.10;;;8.10;;
63114;SDS011;49208;50.874;6.466;2022-11-04T22:24:49;13.77;;;8.07;;
63114;SDS011;49208;50.874;6.466;2022-11-04T22:29:56;14.20;;;7.18;;
63114;SDS011;49208;50.874;6.466;2022-11-04T22:32:22;13.73;;;7.85;;
63114;SDS011;49208;50.874;6.466;2022-11-04T22:34:47;10.13;;;6.63;;
63114;SDS011;49208;50.874;6.466;2022-11-04T22:37:12;12.93;;;6.88;;
63114;SDS011;49208;50.874;6.466;2022-11-04T22:39:38;11.05;;;6.15;;
63114;SDS011;49208;50.874;6.466;2022-11-04T22:42:03;12.25;;;7.30;;
63114;SDS011;49208;50.874;6.466;2022-11-04T22:44:29;13.38;;;6.43;;
63114;SDS011;49208;50.874;6.466;2022-11-04T22:46:54;11.55;;;6.45;;
63114;SDS011;49208;50.874;6.466;2022-11-04T22:49:20;13.68;;;6.57;;
63114;SDS011;49208;50.874;6.466;2022-11-04T22:51:45;13.07;;;7.32;;
63114;SDS011;49208;50.874;6.466;2022-11-04T22:54:11;11.07;;;6.35;;
63114;SDS011;49208;50.874;6.466;2022-11-04T22:56:36;12.70;;;6.60;;
63114;SDS011;49208;50.874;6.466;2022-11-04T22:59:02;15.82;;;8.45;;
63114;SDS011;49208;50.874;6.466;2022-11-04T23:01:27;10.35;;;7.13;;
63114;SDS011;49208;50.874;6.466;2022-11-04T23:03:55;13.60;;;7.15;;
63114;SDS011;49208;50.874;6.466;2022-11-04T23:06:20;12.90;;;7.32;;
63114;SDS011;49208;50.874;6.466;2022-11-04T23:08:46;13.75;;;7.10;;